sensor_id;sensor_type;location;lat;lon;timestamp;temperature;humidity
12060;DHT22;6091;51.432;6.880;2022-10-31T00:01:41;26.30;44.40
12060;DHT22;6091;51.432;6.880;2022-10-31T00:04:08;26.30;44.30
12060;DHT22;6091;51.432;6.880;2022-10-31T00:06:35;26.30;44.50
12060;DHT22;6091;51.432;6.880;2022-10-31T00:09:05;26.30;44.60
12060;DHT22;6091;51.432;6.880;2022-10-31T00:11:33;26.40;44.50
12060;DHT22;6091;51.432;6.880;2022-10-31T00:14:00;26.40;44.50
12060;DHT22;6091;51.432;6.880;2022-10-31T00:16:29;26.30;44.40
12060;DHT22;6091;51.432;6.880;2022-10-31T00:19:02;26.30;44.50
12060;DHT22;6091;51.432;6.880;2022-10-31T00:21:31;26.20;44.40
12060;DHT22;6091;51.432;6.880;2022-10-31T00:23:59;26.40;44.50
12060;DHT22;6091;51.432;6.880;2022-10-31T00:26:28;26.30;44.50
12060;DHT22;6091;51.432;6.880;2022-10-31T00:28:58;26.30;44.50
12060;DHT22;6091;51.432;6.880;2022-10-31T00:31:25;26.30;44.50
12060;DHT22;6091;51.432;6.880;2022-10-31T00:33:53;26.30;44.40
12060;DHT22;6091;51.432;6.880;2022-10-31T00:36:20;26.30;44.40
12060;DHT22;6091;51.432;6.880;2022-10-31T00:38:48;26.40;44.50
12060;DHT22;6091;51.432;6.880;2022-10-31T00:41:19;26.30;44.50
12060;DHT22;6091;51.432;6.880;2022-10-31T00:43:49;27.60;45.30
12060;DHT22;6091;51.432;6.880;2022-10-31T00:46:16;26.30;44.50
12060;DHT22;6091;51.432;6.880;2022-10-31T00:48:44;26.30;44.40
12060;DHT22;6091;51.432;6.880;2022-10-31T00:51:13;26.30;44.50
12060;DHT22;6091;51.432;6.880;2022-10-31T00:53:43;26.30;44.60
12060;DHT22;6091;51.432;6.880;2022-10-31T00:56:13;26.20;44.50
12060;DHT22;6091;51.432;6.880;2022-10-31T00:58:40;26.30;45.10
12060;DHT22;6091;51.432;6.880;2022-10-31T01:01:07;26.20;44.50
12060;DHT22;6091;51.432;6.880;2022-10-31T01:03:35;26.20;44.50
12060;DHT22;6091;51.432;6.880;2022-10-31T01:06:08;26.30;44.50
12060;DHT22;6091;51.432;6.880;2022-10-31T01:08:38;26.20;44.50
12060;DHT22;6091;51.432;6.880;2022-10-31T01:11:07;26.20;44.50
12060;DHT22;6091;51.432;6.880;2022-10-31T01:13:38;26.20;44.50
12060;DHT22;6091;51.432;6.880;2022-10-31T01:16:06;26.20;44.50
12060;DHT22;6091;51.432;6.880;2022-10-31T01:18:36;26.20;44.50
12060;DHT22;6091;51.432;6.880;2022-10-31T01:21:07;26.20;44.50
12060;DHT22;6091;51.432;6.880;2022-10-31T01:23:35;26.20;44.60
12060;DHT22;6091;51.432;6.880;2022-10-31T01:26:13;26.20;44.60
12060;DHT22;6091;51.432;6.880;2022-10-31T01:28:50;26.20;44.60
12060;DHT22;6091;51.432;6.880;2022-10-31T01:31:21;26.20;44.70
12060;DHT22;6091;51.432;6.880;2022-10-31T01:33:51;25.80;44.40
12060;DHT22;6091;51.432;6.880;2022-10-31T01:36:27;26.20;44.60
12060;DHT22;6091;51.432;6.880;2022-10-31T01:39:02;26.20;44.60
12060;DHT22;6091;51.432;6.880;2022-10-31T01:41:34;26.20;44.70
12060;DHT22;6091;51.432;6.880;2022-10-31T01:47:07;26.20;44.70
12060;DHT22;6091;51.432;6.880;2022-10-31T01:49:49;26.20;44.70
12060;DHT22;6091;51.432;6.880;2022-10-31T01:52:30;26.20;44.70
12060;DHT22;6091;51.432;6.880;2022-10-31T01:55:07;25.60;44.30
12060;DHT22;6091;51.432;6.880;2022-10-31T01:57:56;26.20;44.70
12060;DHT22;6091;51.432;6.880;2022-10-31T02:00:27;26.20;44.70
12060;DHT22;6091;51.432;6.880;2022-10-31T02:02:54;26.10;44.70
12060;DHT22;6091;51.432;6.880;2022-10-31T02:05:25;26.20;44.70
12060;DHT22;6091;51.432;6.880;2022-10-31T02:07:58;26.20;44.70
12060;DHT22;6091;51.432;6.880;2022-10-31T02:10:34;26.10;44.60
12060;DHT22;6091;51.432;6.880;2022-10-31T02:13:06;26.10;44.70
12060;DHT22;6091;51.432;6.880;2022-10-31T02:15:36;26.10;44.70
12060;DHT22;6091;51.432;6.880;2022-10-31T02:18:07;26.10;44.70
12060;DHT22;6091;51.432;6.880;2022-10-31T02:21:17;26.10;44.70
12060;DHT22;6091;51.432;6.880;2022-10-31T02:24:08;26.10;44.70
12060;DHT22;6091;51.432;6.880;2022-10-31T02:30:11;26.10;44.70
12060;DHT22;6091;51.432;6.880;2022-10-31T02:43:05;26.10;44.80
12060;DHT22;6091;51.432;6.880;2022-10-31T02:45:59;26.10;44.80
12060;DHT22;6091;51.432;6.880;2022-10-31T02:48:33;26.10;44.70
12060;DHT22;6091;51.432;6.880;2022-10-31T02:51:05;26.00;44.60
12060;DHT22;6091;51.432;6.880;2022-10-31T02:53:36;26.00;44.70
12060;DHT22;6091;51.432;6.880;2022-10-31T02:56:20;26.00;44.70
12060;DHT22;6091;51.432;6.880;2022-10-31T02:58:51;26.00;44.80
12060;DHT22;6091;51.432;6.880;2022-10-31T03:02:00;26.00;44.80
12060;DHT22;6091;51.432;6.880;2022-10-31T03:07:30;26.00;44.90
12060;DHT22;6091;51.432;6.880;2022-10-31T03:10:16;26.00;44.80
12060;DHT22;6091;51.432;6.880;2022-10-31T03:15:45;26.00;44.90
12060;DHT22;6091;51.432;6.880;2022-10-31T03:18:29;26.00;44.80
12060;DHT22;6091;51.432;6.880;2022-10-31T03:21:19;26.00;45.00
12060;DHT22;6091;51.432;6.880;2022-10-31T03:23:56;26.00;44.90
12060;DHT22;6091;51.432;6.880;2022-10-31T03:26:26;25.90;44.80
12060;DHT22;6091;51.432;6.880;2022-10-31T03:29:04;25.90;44.80
12060;DHT22;6091;51.432;6.880;2022-10-31T03:31:42;25.90;44.90
12060;DHT22;6091;51.432;6.880;2022-10-31T03:34:31;25.90;45.00
12060;DHT22;6091;51.432;6.880;2022-10-31T03:37:02;25.90;44.90
12060;DHT22;6091;51.432;6.880;2022-10-31T03:39:34;25.80;44.80
12060;DHT22;6091;51.432;6.880;2022-10-31T03:42:12;25.80;44.80
12060;DHT22;6091;51.432;6.880;2022-10-31T03:44:46;25.90;45.00
12060;DHT22;6091;51.432;6.880;2022-10-31T03:47:17;25.90;45.00
12060;DHT22;6091;51.432;6.880;2022-10-31T03:49:45;25.80;44.80
12060;DHT22;6091;51.432;6.880;2022-10-31T03:55:18;25.80;44.90
12060;DHT22;6091;51.432;6.880;2022-10-31T03:58:05;25.80;44.90
12060;DHT22;6091;51.432;6.880;2022-10-31T04:00:40;25.90;45.00
12060;DHT22;6091;51.432;6.880;2022-10-31T04:03:26;25.80;45.00
12060;DHT22;6091;51.432;6.880;2022-10-31T04:06:03;25.80;45.00
12060;DHT22;6091;51.432;6.880;2022-10-31T04:08:40;25.80;45.00
12060;DHT22;6091;51.432;6.880;2022-10-31T04:11:12;25.80;45.00
12060;DHT22;6091;51.432;6.880;2022-10-31T04:13:44;25.80;45.10
12060;DHT22;6091;51.432;6.880;2022-10-31T04:16:14;25.80;45.30
12060;DHT22;6091;51.432;6.880;2022-10-31T04:18:46;25.80;45.00
12060;DHT22;6091;51.432;6.880;2022-10-31T04:21:13;25.80;45.00
12060;DHT22;6091;51.432;6.880;2022-10-31T04:23:44;25.80;45.00
12060;DHT22;6091;51.432;6.880;2022-10-31T04:26:12;25.80;45.00
12060;DHT22;6091;51.432;6.880;2022-10-31T04:28:40;25.70;45.00
12060;DHT22;6091;51.432;6.880;2022-10-31T04:31:13;25.80;45.50
12060;DHT22;6091;51.432;6.880;2022-10-31T04:33:41;25.80;45.10
12060;DHT22;6091;51.432;6.880;2022-10-31T04:36:09;25.70;45.00
12060;DHT22;6091;51.432;6.880;2022-10-31T04:38:38;25.70;45.00
12060;DHT22;6091;51.432;6.880;2022-10-31T04:41:05;25.80;45.00
12060;DHT22;6091;51.432;6.880;2022-10-31T04:43:37;25.70;45.00
12060;DHT22;6091;51.432;6.880;2022-10-31T04:46:05;25.70;45.00
12060;DHT22;6091;51.432;6.880;2022-10-31T04:48:32;25.70;44.90
12060;DHT22;6091;51.432;6.880;2022-10-31T04:51:05;25.70;45.10
12060;DHT22;6091;51.432;6.880;2022-10-31T04:53:33;25.70;45.10
12060;DHT22;6091;51.432;6.880;2022-10-31T04:56:03;25.70;45.00
12060;DHT22;6091;51.432;6.880;2022-10-31T04:58:31;25.70;45.10
12060;DHT22;6091;51.432;6.880;2022-10-31T05:01:04;25.70;45.10
12060;DHT22;6091;51.432;6.880;2022-10-31T05:03:35;25.80;45.20
12060;DHT22;6091;51.432;6.880;2022-10-31T05:06:02;25.60;45.00
12060;DHT22;6091;51.432;6.880;2022-10-31T05:08:30;25.60;45.00
12060;DHT22;6091;51.432;6.880;2022-10-31T05:11:04;25.70;45.10
12060;DHT22;6091;51.432;6.880;2022-10-31T05:13:32;25.70;45.10
12060;DHT22;6091;51.432;6.880;2022-10-31T05:16:03;25.60;45.10
12060;DHT22;6091;51.432;6.880;2022-10-31T05:18:31;25.70;45.20
12060;DHT22;6091;51.432;6.880;2022-10-31T05:20:59;25.70;45.20
12060;DHT22;6091;51.432;6.880;2022-10-31T05:23:26;25.60;45.10
12060;DHT22;6091;51.432;6.880;2022-10-31T05:25:54;25.60;45.00
12060;DHT22;6091;51.432;6.880;2022-10-31T05:28:21;25.70;44.60
12060;DHT22;6091;51.432;6.880;2022-10-31T05:30:50;25.60;45.10
12060;DHT22;6091;51.432;6.880;2022-10-31T05:33:18;25.60;45.10
12060;DHT22;6091;51.432;6.880;2022-10-31T05:35:45;25.60;45.10
12060;DHT22;6091;51.432;6.880;2022-10-31T05:38:12;25.60;45.10
12060;DHT22;6091;51.432;6.880;2022-10-31T05:40:39;25.60;45.90
12060;DHT22;6091;51.432;6.880;2022-10-31T05:43:07;25.60;45.10
12060;DHT22;6091;51.432;6.880;2022-10-31T05:45:34;25.60;45.20
12060;DHT22;6091;51.432;6.880;2022-10-31T05:48:02;25.60;45.20
12060;DHT22;6091;51.432;6.880;2022-10-31T05:50:34;25.60;45.20
12060;DHT22;6091;51.432;6.880;2022-10-31T05:53:08;25.60;45.30
12060;DHT22;6091;51.432;6.880;2022-10-31T05:55:36;25.60;45.20
12060;DHT22;6091;51.432;6.880;2022-10-31T06:02:13;25.60;45.30
12060;DHT22;6091;51.432;6.880;2022-10-31T06:04:41;25.60;45.20
12060;DHT22;6091;51.432;6.880;2022-10-31T06:07:08;25.60;45.10
12060;DHT22;6091;51.432;6.880;2022-10-31T06:09:35;25.60;45.30
12060;DHT22;6091;51.432;6.880;2022-10-31T06:12:05;25.60;45.30
12060;DHT22;6091;51.432;6.880;2022-10-31T06:14:32;25.50;45.20
12060;DHT22;6091;51.432;6.880;2022-10-31T06:16:59;25.60;45.30
12060;DHT22;6091;51.432;6.880;2022-10-31T06:19:27;25.50;45.30
12060;DHT22;6091;51.432;6.880;2022-10-31T06:21:54;25.50;45.30
12060;DHT22;6091;51.432;6.880;2022-10-31T06:24:21;25.50;45.30
12060;DHT22;6091;51.432;6.880;2022-10-31T06:26:55;25.50;45.40
12060;DHT22;6091;51.432;6.880;2022-10-31T06:29:23;25.50;45.30
12060;DHT22;6091;51.432;6.880;2022-10-31T06:31:53;25.50;45.30
12060;DHT22;6091;51.432;6.880;2022-10-31T06:34:21;25.50;45.30
12060;DHT22;6091;51.432;6.880;2022-10-31T06:36:48;25.50;45.30
12060;DHT22;6091;51.432;6.880;2022-10-31T06:39:18;25.50;45.30
12060;DHT22;6091;51.432;6.880;2022-10-31T06:41:47;25.50;45.40
12060;DHT22;6091;51.432;6.880;2022-10-31T06:44:17;25.50;45.40
12060;DHT22;6091;51.432;6.880;2022-10-31T06:46:50;25.50;45.20
12060;DHT22;6091;51.432;6.880;2022-10-31T06:49:17;25.50;45.30
12060;DHT22;6091;51.432;6.880;2022-10-31T06:51:48;25.50;45.30
12060;DHT22;6091;51.432;6.880;2022-10-31T06:54:16;25.50;45.40
12060;DHT22;6091;51.432;6.880;2022-10-31T06:56:47;25.50;45.50
12060;DHT22;6091;51.432;6.880;2022-10-31T06:59:23;25.50;45.60
12060;DHT22;6091;51.432;6.880;2022-10-31T07:01:51;25.50;45.60
12060;DHT22;6091;51.432;6.880;2022-10-31T07:04:18;25.50;45.70
12060;DHT22;6091;51.432;6.880;2022-10-31T07:06:45;25.50;45.80
12060;DHT22;6091;51.432;6.880;2022-10-31T07:09:18;25.50;45.90
12060;DHT22;6091;51.432;6.880;2022-10-31T07:11:45;25.50;45.80
12060;DHT22;6091;51.432;6.880;2022-10-31T07:14:14;25.60;45.90
12060;DHT22;6091;51.432;6.880;2022-10-31T07:16:47;25.50;46.50
12060;DHT22;6091;51.432;6.880;2022-10-31T07:19:16;25.50;45.90
12060;DHT22;6091;51.432;6.880;2022-10-31T07:21:43;25.50;45.90
12060;DHT22;6091;51.432;6.880;2022-10-31T07:24:11;25.60;46.00
12060;DHT22;6091;51.432;6.880;2022-10-31T07:26:41;25.60;46.00
12060;DHT22;6091;51.432;6.880;2022-10-31T07:29:09;25.60;46.00
12060;DHT22;6091;51.432;6.880;2022-10-31T07:31:36;25.60;45.90
12060;DHT22;6091;51.432;6.880;2022-10-31T07:34:03;25.60;46.00
12060;DHT22;6091;51.432;6.880;2022-10-31T07:36:30;25.60;45.80
12060;DHT22;6091;51.432;6.880;2022-10-31T07:39:00;25.60;45.90
12060;DHT22;6091;51.432;6.880;2022-10-31T07:41:28;25.60;46.00
12060;DHT22;6091;51.432;6.880;2022-10-31T07:44:03;25.60;45.80
12060;DHT22;6091;51.432;6.880;2022-10-31T07:46:31;25.70;45.80
12060;DHT22;6091;51.432;6.880;2022-10-31T07:48:58;25.70;45.80
12060;DHT22;6091;51.432;6.880;2022-10-31T07:51:26;25.70;45.90
12060;DHT22;6091;51.432;6.880;2022-10-31T07:53:53;25.70;45.80
12060;DHT22;6091;51.432;6.880;2022-10-31T07:56:20;25.80;45.70
12060;DHT22;6091;51.432;6.880;2022-10-31T07:58:51;25.70;45.60
12060;DHT22;6091;51.432;6.880;2022-10-31T08:01:18;25.80;45.70
12060;DHT22;6091;51.432;6.880;2022-10-31T08:03:45;25.70;45.50
12060;DHT22;6091;51.432;6.880;2022-10-31T08:06:12;25.80;45.50
12060;DHT22;6091;51.432;6.880;2022-10-31T08:08:40;25.00;45.00
12060;DHT22;6091;51.432;6.880;2022-10-31T08:11:16;25.80;45.50
12060;DHT22;6091;51.432;6.880;2022-10-31T08:13:47;25.70;45.40
12060;DHT22;6091;51.432;6.880;2022-10-31T08:16:17;25.70;45.50
12060;DHT22;6091;51.432;6.880;2022-10-31T08:18:44;25.80;45.50
12060;DHT22;6091;51.432;6.880;2022-10-31T08:21:12;25.80;45.50
12060;DHT22;6091;51.432;6.880;2022-10-31T08:23:42;25.80;45.50
12060;DHT22;6091;51.432;6.880;2022-10-31T08:26:09;25.80;45.50
12060;DHT22;6091;51.432;6.880;2022-10-31T08:28:36;25.30;45.20
12060;DHT22;6091;51.432;6.880;2022-10-31T08:31:04;25.80;45.60
12060;DHT22;6091;51.432;6.880;2022-10-31T08:33:32;25.80;45.60
12060;DHT22;6091;51.432;6.880;2022-10-31T08:36:00;25.80;45.50
12060;DHT22;6091;51.432;6.880;2022-10-31T08:38:30;25.80;45.60
12060;DHT22;6091;51.432;6.880;2022-10-31T08:41:03;25.90;45.70
12060;DHT22;6091;51.432;6.880;2022-10-31T08:43:30;25.90;45.70
12060;DHT22;6091;51.432;6.880;2022-10-31T08:45:58;25.80;45.60
12060;DHT22;6091;51.432;6.880;2022-10-31T08:48:25;25.90;45.70
12060;DHT22;6091;51.432;6.880;2022-10-31T08:50:56;25.80;45.70
12060;DHT22;6091;51.432;6.880;2022-10-31T08:53:30;26.00;45.80
12060;DHT22;6091;51.432;6.880;2022-10-31T08:56:01;26.00;45.80
12060;DHT22;6091;51.432;6.880;2022-10-31T08:58:28;26.00;45.70
12060;DHT22;6091;51.432;6.880;2022-10-31T09:00:55;26.00;45.70
12060;DHT22;6091;51.432;6.880;2022-10-31T09:03:30;25.90;45.60
12060;DHT22;6091;51.432;6.880;2022-10-31T09:06:00;26.00;45.60
12060;DHT22;6091;51.432;6.880;2022-10-31T09:08:30;26.00;45.60
12060;DHT22;6091;51.432;6.880;2022-10-31T09:10:58;26.00;45.60
12060;DHT22;6091;51.432;6.880;2022-10-31T09:13:26;26.10;45.60
12060;DHT22;6091;51.432;6.880;2022-10-31T09:15:58;26.00;45.60
12060;DHT22;6091;51.432;6.880;2022-10-31T09:18:31;26.10;45.50
12060;DHT22;6091;51.432;6.880;2022-10-31T09:20:59;26.20;45.60
12060;DHT22;6091;51.432;6.880;2022-10-31T09:23:30;26.20;45.60
12060;DHT22;6091;51.432;6.880;2022-10-31T09:26:03;26.20;45.60
12060;DHT22;6091;51.432;6.880;2022-10-31T09:28:31;26.20;45.70
12060;DHT22;6091;51.432;6.880;2022-10-31T09:31:02;26.20;45.60
12060;DHT22;6091;51.432;6.880;2022-10-31T09:33:29;26.20;45.60
12060;DHT22;6091;51.432;6.880;2022-10-31T09:35:58;26.20;45.50
12060;DHT22;6091;51.432;6.880;2022-10-31T09:38:28;24.40;44.20
12060;DHT22;6091;51.432;6.880;2022-10-31T09:41:42;26.30;45.60
12060;DHT22;6091;51.432;6.880;2022-10-31T09:44:46;25.60;45.20
12060;DHT22;6091;51.432;6.880;2022-10-31T09:50:46;26.30;45.50
12060;DHT22;6091;51.432;6.880;2022-10-31T09:56:16;26.40;45.50
12060;DHT22;6091;51.432;6.880;2022-10-31T10:04:53;26.60;45.60
12060;DHT22;6091;51.432;6.880;2022-10-31T10:10:40;26.50;45.50
12060;DHT22;6091;51.432;6.880;2022-10-31T10:28:20;26.70;45.50
12060;DHT22;6091;51.432;6.880;2022-10-31T10:30:57;26.70;45.40
12060;DHT22;6091;51.432;6.880;2022-10-31T10:36:46;26.80;45.30
12060;DHT22;6091;51.432;6.880;2022-10-31T10:39:41;26.80;45.20
12060;DHT22;6091;51.432;6.880;2022-10-31T10:42:14;26.80;45.20
12060;DHT22;6091;51.432;6.880;2022-10-31T10:45:14;26.80;45.20
12060;DHT22;6091;51.432;6.880;2022-10-31T10:50:47;26.90;45.10
12060;DHT22;6091;51.432;6.880;2022-10-31T10:53:49;26.90;45.20
12060;DHT22;6091;51.432;6.880;2022-10-31T10:57:11;26.90;45.00
12060;DHT22;6091;51.432;6.880;2022-10-31T10:59:49;26.90;45.00
12060;DHT22;6091;51.432;6.880;2022-10-31T11:02:21;26.90;45.10
12060;DHT22;6091;51.432;6.880;2022-10-31T11:04:58;26.90;45.10
12060;DHT22;6091;51.432;6.880;2022-10-31T11:07:38;26.90;45.00
12060;DHT22;6091;51.432;6.880;2022-10-31T11:10:11;26.90;44.90
12060;DHT22;6091;51.432;6.880;2022-10-31T11:12:45;26.90;45.00
12060;DHT22;6091;51.432;6.880;2022-10-31T11:15:27;26.90;44.90
12060;DHT22;6091;51.432;6.880;2022-10-31T11:17:57;26.90;44.90
12060;DHT22;6091;51.432;6.880;2022-10-31T11:20:34;26.90;44.80
12060;DHT22;6091;51.432;6.880;2022-10-31T11:23:26;26.90;44.70
12060;DHT22;6091;51.432;6.880;2022-10-31T11:28:31;26.90;44.60
12060;DHT22;6091;51.432;6.880;2022-10-31T11:31:12;26.90;44.70
12060;DHT22;6091;51.432;6.880;2022-10-31T11:33:47;26.90;44.60
12060;DHT22;6091;51.432;6.880;2022-10-31T11:36:23;26.90;44.60
12060;DHT22;6091;51.432;6.880;2022-10-31T11:38:52;26.90;44.50
12060;DHT22;6091;51.432;6.880;2022-10-31T11:41:34;26.90;44.60
12060;DHT22;6091;51.432;6.880;2022-10-31T11:46:51;26.90;44.50
12060;DHT22;6091;51.432;6.880;2022-10-31T11:49:39;27.00;44.50
12060;DHT22;6091;51.432;6.880;2022-10-31T11:52:14;27.00;44.40
12060;DHT22;6091;51.432;6.880;2022-10-31T11:57:26;26.90;44.30
12060;DHT22;6091;51.432;6.880;2022-10-31T12:00:38;26.90;44.40
12060;DHT22;6091;51.432;6.880;2022-10-31T12:05:42;27.00;44.30
12060;DHT22;6091;51.432;6.880;2022-10-31T12:08:13;27.00;44.40
12060;DHT22;6091;51.432;6.880;2022-10-31T12:10:52;27.00;44.30
12060;DHT22;6091;51.432;6.880;2022-10-31T12:16:43;26.90;44.10
12060;DHT22;6091;51.432;6.880;2022-10-31T12:19:32;26.90;44.20
12060;DHT22;6091;51.432;6.880;2022-10-31T12:22:12;26.90;44.10
12060;DHT22;6091;51.432;6.880;2022-10-31T12:53:19;26.90;44.10
12060;DHT22;6091;51.432;6.880;2022-10-31T12:59:04;26.90;44.10
12060;DHT22;6091;51.432;6.880;2022-10-31T13:04:42;26.90;44.10
12060;DHT22;6091;51.432;6.880;2022-10-31T13:07:37;26.90;44.00
12060;DHT22;6091;51.432;6.880;2022-10-31T13:10:18;26.90;44.10
12060;DHT22;6091;51.432;6.880;2022-10-31T13:12:54;26.90;44.00
12060;DHT22;6091;51.432;6.880;2022-10-31T13:15:27;27.00;44.10
12060;DHT22;6091;51.432;6.880;2022-10-31T13:18:05;26.90;44.00
12060;DHT22;6091;51.432;6.880;2022-10-31T13:20:42;26.90;44.00
12060;DHT22;6091;51.432;6.880;2022-10-31T13:23:30;27.00;44.10
12060;DHT22;6091;51.432;6.880;2022-10-31T13:26:47;27.00;44.00
12060;DHT22;6091;51.432;6.880;2022-10-31T13:32:03;27.00;44.10
12060;DHT22;6091;51.432;6.880;2022-10-31T13:37:13;27.00;44.10
12060;DHT22;6091;51.432;6.880;2022-10-31T13:43:27;27.00;44.00
12060;DHT22;6091;51.432;6.880;2022-10-31T13:45:56;27.00;44.10
12060;DHT22;6091;51.432;6.880;2022-10-31T13:48:40;27.00;44.20
12060;DHT22;6091;51.432;6.880;2022-10-31T13:51:10;27.00;44.20
12060;DHT22;6091;51.432;6.880;2022-10-31T13:54:00;26.90;44.10
12060;DHT22;6091;51.432;6.880;2022-10-31T13:56:34;26.90;44.10
12060;DHT22;6091;51.432;6.880;2022-10-31T13:59:26;26.90;44.20
12060;DHT22;6091;51.432;6.880;2022-10-31T14:01:59;26.90;44.30
12060;DHT22;6091;51.432;6.880;2022-10-31T14:04:44;26.90;44.30
12060;DHT22;6091;51.432;6.880;2022-10-31T14:07:16;26.90;44.90
12060;DHT22;6091;51.432;6.880;2022-10-31T14:15:24;27.00;44.40
12060;DHT22;6091;51.432;6.880;2022-10-31T14:17:56;26.90;44.40
12060;DHT22;6091;51.432;6.880;2022-10-31T14:20:40;26.90;44.40
12060;DHT22;6091;51.432;6.880;2022-10-31T14:28:57;26.90;44.40
12060;DHT22;6091;51.432;6.880;2022-10-31T14:31:34;26.90;44.40
12060;DHT22;6091;51.432;6.880;2022-10-31T14:34:33;26.90;44.50
12060;DHT22;6091;51.432;6.880;2022-10-31T14:40:10;26.90;44.50
12060;DHT22;6091;51.432;6.880;2022-10-31T14:45:52;26.90;44.60
12060;DHT22;6091;51.432;6.880;2022-10-31T14:48:55;26.90;44.60
12060;DHT22;6091;51.432;6.880;2022-10-31T14:51:36;26.90;44.60
12060;DHT22;6091;51.432;6.880;2022-10-31T14:54:16;26.90;44.60
12060;DHT22;6091;51.432;6.880;2022-10-31T14:56:51;26.90;44.60
12060;DHT22;6091;51.432;6.880;2022-10-31T14:59:24;26.90;44.60
12060;DHT22;6091;51.432;6.880;2022-10-31T15:02:07;26.90;44.60
12060;DHT22;6091;51.432;6.880;2022-10-31T15:04:40;26.90;44.60
12060;DHT22;6091;51.432;6.880;2022-10-31T15:07:18;26.90;44.60
12060;DHT22;6091;51.432;6.880;2022-10-31T15:09:58;26.90;44.70
12060;DHT22;6091;51.432;6.880;2022-10-31T15:12:29;26.90;44.70
12060;DHT22;6091;51.432;6.880;2022-10-31T15:15:10;26.90;44.70
12060;DHT22;6091;51.432;6.880;2022-10-31T15:17:44;26.90;44.60
12060;DHT22;6091;51.432;6.880;2022-10-31T15:20:27;26.90;44.60
12060;DHT22;6091;51.432;6.880;2022-10-31T15:22:57;26.90;44.60
12060;DHT22;6091;51.432;6.880;2022-10-31T15:25:28;26.90;44.60
12060;DHT22;6091;51.432;6.880;2022-10-31T15:27:59;26.90;44.60
12060;DHT22;6091;51.432;6.880;2022-10-31T15:30:28;26.90;44.60
12060;DHT22;6091;51.432;6.880;2022-10-31T15:32:55;26.90;44.50
12060;DHT22;6091;51.432;6.880;2022-10-31T15:37:53;26.90;44.50
12060;DHT22;6091;51.432;6.880;2022-10-31T15:40:23;26.80;44.40
12060;DHT22;6091;51.432;6.880;2022-10-31T15:43:02;26.80;44.40
12060;DHT22;6091;51.432;6.880;2022-10-31T15:45:32;26.80;44.40
12060;DHT22;6091;51.432;6.880;2022-10-31T15:48:03;26.90;44.50
12060;DHT22;6091;51.432;6.880;2022-10-31T15:50:55;26.80;44.40
12060;DHT22;6091;51.432;6.880;2022-10-31T15:53:31;26.90;44.50
12060;DHT22;6091;51.432;6.880;2022-10-31T15:56:06;26.80;44.50
12060;DHT22;6091;51.432;6.880;2022-10-31T15:58:42;26.80;44.40
12060;DHT22;6091;51.432;6.880;2022-10-31T16:01:28;26.80;44.40
12060;DHT22;6091;51.432;6.880;2022-10-31T16:04:24;26.80;44.40
12060;DHT22;6091;51.432;6.880;2022-10-31T16:07:10;26.80;44.40
12060;DHT22;6091;51.432;6.880;2022-10-31T16:10:02;26.80;44.40
12060;DHT22;6091;51.432;6.880;2022-10-31T16:12:42;26.90;44.50
12060;DHT22;6091;51.432;6.880;2022-10-31T16:15:15;26.80;44.40
12060;DHT22;6091;51.432;6.880;2022-10-31T16:17:49;26.80;44.50
12060;DHT22;6091;51.432;6.880;2022-10-31T16:20:28;26.80;44.50
12060;DHT22;6091;51.432;6.880;2022-10-31T16:22:58;26.80;44.50
12060;DHT22;6091;51.432;6.880;2022-10-31T16:25:36;26.70;44.40
12060;DHT22;6091;51.432;6.880;2022-10-31T16:28:13;26.70;44.40
12060;DHT22;6091;51.432;6.880;2022-10-31T16:30:48;26.70;44.50
12060;DHT22;6091;51.432;6.880;2022-10-31T16:33:35;26.70;44.40
12060;DHT22;6091;51.432;6.880;2022-10-31T16:36:35;26.70;44.50
12060;DHT22;6091;51.432;6.880;2022-10-31T16:39:05;26.70;44.40
12060;DHT22;6091;51.432;6.880;2022-10-31T16:41:41;26.70;44.40
12060;DHT22;6091;51.432;6.880;2022-10-31T16:44:19;26.80;44.50
12060;DHT22;6091;51.432;6.880;2022-10-31T16:49:43;26.70;44.50
12060;DHT22;6091;51.432;6.880;2022-10-31T16:52:12;26.70;44.50
12060;DHT22;6091;51.432;6.880;2022-10-31T16:54:39;26.70;44.50
12060;DHT22;6091;51.432;6.880;2022-10-31T16:57:06;26.70;44.50
12060;DHT22;6091;51.432;6.880;2022-10-31T16:59:42;26.70;44.50
12060;DHT22;6091;51.432;6.880;2022-10-31T17:02:14;26.70;44.50
12060;DHT22;6091;51.432;6.880;2022-10-31T17:04:43;26.70;44.50
12060;DHT22;6091;51.432;6.880;2022-10-31T17:07:10;26.60;44.50
12060;DHT22;6091;51.432;6.880;2022-10-31T17:09:37;26.60;44.50
12060;DHT22;6091;51.432;6.880;2022-10-31T17:12:05;26.70;44.60
12060;DHT22;6091;51.432;6.880;2022-10-31T17:14:39;26.60;44.50
12060;DHT22;6091;51.432;6.880;2022-10-31T17:17:07;26.60;44.50
12060;DHT22;6091;51.432;6.880;2022-10-31T17:19:34;26.60;44.50
12060;DHT22;6091;51.432;6.880;2022-10-31T17:22:01;26.60;44.50
12060;DHT22;6091;51.432;6.880;2022-10-31T17:24:28;26.60;44.50
12060;DHT22;6091;51.432;6.880;2022-10-31T17:26:55;26.60;44.50
12060;DHT22;6091;51.432;6.880;2022-10-31T17:29:22;26.60;44.50
12060;DHT22;6091;51.432;6.880;2022-10-31T17:31:49;26.60;44.30
12060;DHT22;6091;51.432;6.880;2022-10-31T17:34:16;26.60;44.40
12060;DHT22;6091;51.432;6.880;2022-10-31T17:36:49;26.60;44.50
12060;DHT22;6091;51.432;6.880;2022-10-31T17:39:21;26.60;44.50
12060;DHT22;6091;51.432;6.880;2022-10-31T17:41:51;26.60;44.60
12060;DHT22;6091;51.432;6.880;2022-10-31T17:44:18;26.60;44.60
12060;DHT22;6091;51.432;6.880;2022-10-31T17:46:45;26.60;45.00
12060;DHT22;6091;51.432;6.880;2022-10-31T17:49:12;26.60;44.70
12060;DHT22;6091;51.432;6.880;2022-10-31T17:51:39;26.60;44.70
12060;DHT22;6091;51.432;6.880;2022-10-31T17:54:06;26.60;44.80
12060;DHT22;6091;51.432;6.880;2022-10-31T17:56:34;26.60;44.80
12060;DHT22;6091;51.432;6.880;2022-10-31T17:59:01;26.60;44.80
12060;DHT22;6091;51.432;6.880;2022-10-31T18:01:29;26.70;44.90
12060;DHT22;6091;51.432;6.880;2022-10-31T18:03:56;26.70;44.90
12060;DHT22;6091;51.432;6.880;2022-10-31T18:06:23;26.70;44.90
12060;DHT22;6091;51.432;6.880;2022-10-31T18:08:50;26.70;45.00
12060;DHT22;6091;51.432;6.880;2022-10-31T18:11:19;26.70;44.90
12060;DHT22;6091;51.432;6.880;2022-10-31T18:13:52;26.80;45.00
12060;DHT22;6091;51.432;6.880;2022-10-31T18:16:21;26.80;45.00
12060;DHT22;6091;51.432;6.880;2022-10-31T18:18:53;26.80;45.00
12060;DHT22;6091;51.432;6.880;2022-10-31T18:21:28;26.80;45.00
12060;DHT22;6091;51.432;6.880;2022-10-31T18:23:57;26.80;45.00
12060;DHT22;6091;51.432;6.880;2022-10-31T18:26:26;26.80;45.00
12060;DHT22;6091;51.432;6.880;2022-10-31T18:28:54;26.80;45.00
12060;DHT22;6091;51.432;6.880;2022-10-31T18:31:20;26.80;45.00
12060;DHT22;6091;51.432;6.880;2022-10-31T18:33:47;26.80;45.00
12060;DHT22;6091;51.432;6.880;2022-10-31T18:36:17;26.80;45.00
12060;DHT22;6091;51.432;6.880;2022-10-31T18:38:44;26.80;45.00
12060;DHT22;6091;51.432;6.880;2022-10-31T18:41:12;26.80;45.00
12060;DHT22;6091;51.432;6.880;2022-10-31T18:43:40;26.80;44.90
12060;DHT22;6091;51.432;6.880;2022-10-31T18:46:11;26.80;44.90
12060;DHT22;6091;51.432;6.880;2022-10-31T18:48:41;26.80;44.90
12060;DHT22;6091;51.432;6.880;2022-10-31T18:51:11;26.80;44.80